Time;durP1;ratioP1;P1;durP2;ratioP2;P2;SDS_P1;SDS_P2;PMS_P1;PMS_P2;Temp;Humidity;BMP_temperature;BMP_pressure;BME280_temperature;BME280_humidity;BME280_pressure;Samples;Min_cycle;Max_cycle;Signal;HPM_P1;HPM_P2
2023/08/17 00:00:03;;;;;;;2.50;1.48;;;19.80;99.90;;;;;;5063275;28;20062;-35
2023/08/17 00:02:28;;;;;;;3.35;1.42;;;19.80;99.90;;;;;;5075556;28;20494;-36
2023/08/17 00:04:54;;;;;;;2.25;1.20;;;19.80;99.90;;;;;;5067643;28;20025;-36
2023/08/17 00:07:21;;;;;;;3.47;2.30;;;19.80;99.90;;;;;;5073809;28;20392;-35
2023/08/17 00:09:47;;;;;;;3.65;1.38;;;19.80;99.90;;;;;;5080366;28;20503;-37
2023/08/17 00:12:13;;;;;;;2.88;1.10;;;19.80;99.90;;;;;;5077191;28;20066;-36
2023/08/17 00:14:39;;;;;;;4.28;1.65;;;19.80;99.90;;;;;;5076205;28;20059;-36
2023/08/17 00:17:04;;;;;;;3.10;1.40;;;19.80;99.90;;;;;;5078624;28;20130;-36
2023/08/17 00:19:30;;;;;;;1.73;1.38;;;19.80;99.90;;;;;;5074695;28;20032;-36
2023/08/17 00:21:56;;;;;;;3.17;1.70;;;19.80;99.90;;;;;;5082203;28;20115;-34
2023/08/17 00:24:21;;;;;;;2.78;1.65;;;19.90;99.90;;;;;;5071768;28;20023;-35
2023/08/17 00:26:47;;;;;;;2.85;1.55;;;19.80;99.90;;;;;;5083212;28;20126;-35
2023/08/17 00:29:24;;;;;;;3.80;1.42;;;19.80;99.90;;;;;;5068328;28;20555;-34
2023/08/17 00:31:53;;;;;;;3.45;1.42;;;19.80;99.90;;;;;;5085138;28;20115;-36
2023/08/17 00:34:19;;;;;;;2.65;1.40;;;19.80;99.90;;;;;;5078168;28;20055;-36
2023/08/17 00:36:45;;;;;;;2.42;1.20;;;19.90;99.90;;;;;;5066973;28;20119;-36
2023/08/17 00:39:10;;;;;;;3.10;1.30;;;19.80;99.90;;;;;;5079442;28;20739;-36
2023/08/17 00:41:36;;;;;;;1.67;1.10;;;19.80;99.90;;;;;;5067445;28;20037;-35
2023/08/17 00:44:01;;;;;;;2.55;1.38;;;19.80;99.90;;;;;;5079164;28;20055;-36
2023/08/17 00:46:28;;;;;;;2.78;1.10;;;19.80;99.90;;;;;;5068149;28;20035;-35
2023/08/17 00:48:55;;;;;;;3.20;1.38;;;19.80;99.90;;;;;;5077118;28;20032;-34
2023/08/17 00:51:23;;;;;;;1.77;1.35;;;19.80;99.90;;;;;;5068143;28;20090;-35
2023/08/17 00:53:55;;;;;;;3.25;1.40;;;19.70;99.90;;;;;;5075180;28;20066;-35
2023/08/17 00:56:21;;;;;;;;;;;19.60;99.90;;;;;;5069036;28;20234;-36
2023/08/17 00:58:48;;;;;;;2.88;1.20;;;19.50;99.90;;;;;;5073971;28;20044;-35
2023/08/17 01:01:14;;;;;;;4.28;1.40;;;19.40;99.90;;;;;;5072634;28;20028;-37
2023/08/17 01:03:43;;;;;;;1.73;1.20;;;19.30;99.90;;;;;;5070133;28;20372;-36
2023/08/17 01:06:09;;;;;;;3.67;1.50;;;19.30;99.90;;;;;;5086055;28;20039;-37
2023/08/17 01:08:37;;;;;;;2.83;1.27;;;19.30;99.90;;;;;;5085152;28;20016;-37
2023/08/17 01:11:12;;;;;;;2.83;1.33;;;19.30;99.90;;;;;;5075271;28;20031;-36
2023/08/17 01:14:04;;;;;;;4.88;1.67;;;19.20;99.90;;;;;;5085677;28;20098;-37
2023/08/17 01:16:42;;;;;;;3.30;1.52;;;19.20;99.90;;;;;;5079100;28;20063;-36
2023/08/17 01:19:10;;;;;;;4.47;1.65;;;19.20;99.90;;;;;;5082363;28;20024;-36
2023/08/17 01:21:45;;;;;;;2.45;1.40;;;19.20;99.90;;;;;;5076987;28;20036;-35
2023/08/17 01:24:12;;;;;;;4.07;1.45;;;19.20;99.90;;;;;;5081935;28;20034;-35
2023/08/17 01:26:37;;;;;;;4.63;1.88;;;19.20;99.90;;;;;;5075848;28;20027;-37
2023/08/17 01:29:03;;;;;;;2.92;1.80;;;19.20;99.90;;;;;;5083797;28;20017;-36
2023/08/17 01:31:34;;;;;;;3.97;1.88;;;19.10;99.90;;;;;;5073442;28;20908;-36
2023/08/17 01:34:09;;;;;;;2.47;1.52;;;19.10;99.90;;;;;;5085614;28;20098;-35
2023/08/17 01:36:45;;;;;;;3.83;1.58;;;19.10;99.90;;;;;;5075116;28;20370;-34
2023/08/17 01:39:11;;;;;;;2.50;1.33;;;19.10;99.90;;;;;;5084298;28;20024;-35
2023/08/17 01:41:39;;;;;;;2.42;1.27;;;19.00;99.90;;;;;;5075688;28;20024;-36
2023/08/17 01:44:05;;;;;;;2.75;1.40;;;19.00;99.90;;;;;;5084673;28;20024;-35
2023/08/17 01:46:32;;;;;;;3.40;1.58;;;19.00;99.90;;;;;;5078203;28;20055;-36
2023/08/17 01:48:58;;;;;;;5.38;1.92;;;19.00;99.90;;;;;;5065656;28;20535;-35
2023/08/17 01:51:25;;;;;;;3.90;1.80;;;19.00;99.90;;;;;;5077881;28;20139;-35
2023/08/17 01:53:50;;;;;;;3.60;1.80;;;18.90;99.90;;;;;;5065714;28;20035;-35
2023/08/17 01:56:20;;;;;;;2.10;1.50;;;18.90;99.90;;;;;;5067198;28;20144;-37
2023/08/17 01:58:45;;;;;;;3.75;2.15;;;18.90;99.90;;;;;;5086547;28;20064;-35
2023/08/17 02:01:11;;;;;;;4.32;1.80;;;18.80;99.90;;;;;;5075635;28;20071;-34
2023/08/17 02:03:37;;;;;;;2.55;1.45;;;18.80;99.90;;;;;;5082945;28;20020;-35
2023/08/17 02:06:05;;;;;;;3.63;1.58;;;18.80;99.90;;;;;;5080762;28;20485;-34
2023/08/17 02:08:33;;;;;;;5.47;1.95;;;18.80;99.90;;;;;;5070153;28;20031;-35
2023/08/17 02:10:59;;;;;;;2.60;1.52;;;18.80;99.90;;;;;;5070054;28;20017;-34
2023/08/17 02:13:27;;;;;;;5.20;1.70;;;18.80;99.90;;;;;;5073123;28;20028;-35
2023/08/17 02:15:53;;;;;;;3.08;1.65;;;18.70;99.90;;;;;;5067666;28;20030;-36
2023/08/17 02:18:19;;;;;;;2.92;1.42;;;18.70;99.90;;;;;;5075397;28;20366;-37
2023/08/17 02:20:45;;;;;;;1.65;1.30;;;18.70;99.90;;;;;;5066396;28;20772;-36
2023/08/17 02:23:10;;;;;;;3.28;1.70;;;18.70;99.90;;;;;;5075954;28;20042;-35
2023/08/17 02:25:39;;;;;;;3.00;1.55;;;18.70;99.90;;;;;;5066408;28;20021;-36
2023/08/17 02:28:07;;;;;;;3.00;1.30;;;18.70;99.90;;;;;;5076204;28;20105;-36
2023/08/17 02:30:34;;;;;;;4.28;1.50;;;18.70;99.90;;;;;;5064431;28;20807;-37
2023/08/17 02:32:59;;;;;;;3.35;1.67;;;18.70;99.90;;;;;;5076325;28;20025;-36
2023/08/17 02:35:25;;;;;;;2.47;1.50;;;18.70;99.90;;;;;;5063462;28;20029;-36
2023/08/17 02:37:51;;;;;;;4.15;1.40;;;18.70;99.90;;;;;;5077333;28;20036;-36
2023/08/17 02:40:16;;;;;;;3.33;1.50;;;18.70;99.90;;;;;;5084319;28;20028;-36
2023/08/17 02:42:42;;;;;;;5.25;1.42;;;18.60;99.90;;;;;;5074925;28;20039;-35
2023/08/17 02:45:08;;;;;;;1.98;1.40;;;18.60;99.90;;;;;;5082739;28;20429;-38
2023/08/17 02:47:34;;;;;;;2.15;1.40;;;18.60;99.90;;;;;;5077926;28;20124;-36
2023/08/17 02:49:59;;;;;;;2.33;1.23;;;18.50;99.90;;;;;;5079144;28;20106;-37
2023/08/17 02:52:25;;;;;;;2.75;1.20;;;18.60;99.90;;;;;;5079546;28;20503;-37
2023/08/17 02:54:51;;;;;;;2.10;1.40;;;18.60;99.90;;;;;;5077282;28;20089;-34
2023/08/17 02:57:18;;;;;;;3.60;1.50;;;18.60;99.90;;;;;;5080752;28;20031;-35
2023/08/17 02:59:44;;;;;;;2.28;1.27;;;18.60;99.90;;;;;;5075175;28;20023;-35
2023/08/17 03:02:09;;;;;;;4.32;1.50;;;18.60;99.90;;;;;;5082846;28;20617;-35
2023/08/17 03:04:35;;;;;;;2.97;1.60;;;18.50;99.90;;;;;;5073224;28;20031;-35
2023/08/17 03:07:00;;;;;;;2.92;1.55;;;18.50;99.90;;;;;;5068459;28;20020;-35
2023/08/17 03:09:26;;;;;;;3.10;1.70;;;18.50;99.90;;;;;;5076288;28;20020;-35
2023/08/17 03:11:52;;;;;;;3.47;2.17;;;18.50;99.90;;;;;;5064675;28;20029;-35
2023/08/17 03:14:17;;;;;;;2.90;1.52;;;18.40;99.90;;;;;;5076151;28;20038;-34
2023/08/17 03:16:46;;;;;;;2.20;1.35;;;18.40;99.90;;;;;;5064313;28;20016;-35
2023/08/17 03:19:11;;;;;;;2.78;1.73;;;18.40;99.90;;;;;;5076868;28;20020;-34
2023/08/17 03:21:40;;;;;;;2.42;1.40;;;18.40;99.90;;;;;;5064921;28;20035;-34
2023/08/17 03:24:06;;;;;;;4.07;1.55;;;18.30;99.90;;;;;;5073338;28;20459;-36
2023/08/17 03:26:32;;;;;;;2.75;1.48;;;18.30;99.90;;;;;;5066544;28;20472;-36
2023/08/17 03:28:57;;;;;;;4.35;1.73;;;18.20;99.90;;;;;;5071715;28;20553;-36
2023/08/17 03:31:23;;;;;;;3.90;1.98;;;18.20;99.90;;;;;;5068737;28;20028;-36
2023/08/17 03:33:49;;;;;;;4.25;1.52;;;18.10;99.90;;;;;;5069284;28;20012;-35
2023/08/17 03:36:15;;;;;;;3.55;1.55;;;18.10;99.90;;;;;;5071333;28;20032;-35
2023/08/17 03:38:40;;;;;;;5.43;1.55;;;18.10;99.90;;;;;;5066163;28;20024;-36
2023/08/17 03:41:07;;;;;;;3.38;1.75;;;18.00;99.90;;;;;;5072800;28;20074;-37
2023/08/17 03:43:32;;;;;;;3.08;1.52;;;18.00;99.90;;;;;;5063947;28;20420;-36
2023/08/17 03:46:04;;;;;;;3.38;1.70;;;18.00;99.90;;;;;;5073944;28;20016;-36
2023/08/17 03:48:30;;;;;;;2.38;1.67;;;17.90;99.90;;;;;;5064926;28;20135;-36
2023/08/17 03:50:55;;;;;;;2.85;1.63;;;17.90;99.90;;;;;;5075336;28;20828;-35
2023/08/17 03:53:21;;;;;;;4.72;1.67;;;17.80;99.90;;;;;;5062403;28;20048;-35
2023/08/17 03:55:51;;;;;;;4.93;1.58;;;17.80;99.90;;;;;;5076654;28;20036;-35
2023/08/17 03:58:18;;;;;;;4.53;1.95;;;17.80;99.90;;;;;;5063909;28;20230;-35
2023/08/17 04:00:52;;;;;;;3.83;1.50;;;17.70;99.90;;;;;;5075765;28;20042;-36
2023/08/17 04:03:19;;;;;;;5.97;1.80;;;17.70;99.90;;;;;;5063102;28;20060;-35
2023/08/17 04:05:45;;;;;;;4.13;1.50;;;17.70;99.90;;;;;;5070227;28;20023;-35
2023/08/17 04:08:13;;;;;;;2.40;1.80;;;17.60;99.90;;;;;;5062983;28;20021;-35
2023/08/17 04:10:39;;;;;;;1.60;1.30;;;17.60;99.90;;;;;;5073908;28;20059;-35
2023/08/17 04:13:04;;;;;;;2.75;2.00;;;17.60;99.90;;;;;;5065170;28;20060;-35
2023/08/17 04:15:33;;;;;;;4.40;2.08;;;17.60;99.90;;;;;;5071367;28;20020;-36
2023/08/17 04:17:59;;;;;;;3.92;1.60;;;17.50;99.90;;;;;;5068010;28;20027;-36
2023/08/17 04:20:25;;;;;;;3.08;1.80;;;17.50;99.90;;;;;;5068608;28;20028;-35
2023/08/17 04:22:57;;;;;;;2.38;1.70;;;17.50;99.90;;;;;;5070029;28;20052;-35
2023/08/17 04:25:23;;;;;;;3.95;1.77;;;17.50;99.90;;;;;;5067127;28;20024;-35
2023/08/17 04:27:48;;;;;;;5.40;1.60;;;17.50;99.90;;;;;;5072141;28;20063;-36
2023/08/17 04:30:14;;;;;;;3.80;1.50;;;17.50;99.90;;;;;;5064840;28;20031;-35
2023/08/17 04:32:39;;;;;;;2.83;1.75;;;17.50;99.90;;;;;;5075309;28;20017;-36
2023/08/17 04:35:05;;;;;;;2.58;1.70;;;17.40;99.90;;;;;;5063798;28;20052;-35
2023/08/17 04:37:31;;;;;;;1.75;1.40;;;17.40;99.90;;;;;;5074908;28;20048;-35
2023/08/17 04:39:56;;;;;;;3.65;1.85;;;17.40;99.90;;;;;;5063976;28;20020;-37
2023/08/17 04:42:22;;;;;;;5.90;2.03;;;17.40;99.90;;;;;;5077999;28;20495;-36
2023/08/17 04:44:48;;;;;;;2.90;1.50;;;17.40;99.90;;;;;;5063003;28;20585;-35
2023/08/17 04:47:16;;;;;;;1.90;1.17;;;17.40;99.90;;;;;;5074884;28;20028;-36
2023/08/17 04:49:42;;;;;;;3.22;1.52;;;17.40;99.90;;;;;;5061392;28;20102;-36
2023/08/17 04:52:07;;;;;;;5.05;1.70;;;17.40;99.90;;;;;;5065697;28;20156;-37
2023/08/17 04:54:33;;;;;;;3.72;1.67;;;17.50;99.90;;;;;;5082075;28;20039;-36
2023/08/17 04:56:59;;;;;;;1.95;1.58;;;17.50;99.90;;;;;;5074157;28;20052;-39
2023/08/17 04:59:25;;;;;;;4.32;1.40;;;17.50;99.90;;;;;;5079137;28;20031;-35
2023/08/17 05:01:51;;;;;;;2.20;1.35;;;17.50;99.90;;;;;;5077500;28;20518;-36
2023/08/17 05:04:19;;;;;;;4.40;1.25;;;17.60;99.90;;;;;;5075616;28;20518;-35
2023/08/17 05:06:45;;;;;;;3.88;1.17;;;17.60;99.90;;;;;;5073840;28;20035;-35
2023/08/17 05:09:11;;;;;;;3.15;1.30;;;17.60;99.90;;;;;;5071664;28;20040;-37
2023/08/17 05:11:36;;;;;;;4.32;1.65;;;17.60;99.90;;;;;;5063609;28;20043;-36
2023/08/17 05:14:08;;;;;;;2.28;1.27;;;17.60;99.90;;;;;;5074641;28;20025;-37
2023/08/17 05:16:34;;;;;;;2.65;1.20;;;17.60;99.90;;;;;;5063507;28;20032;-35
2023/08/17 05:19:00;;;;;;;2.45;1.20;;;17.60;99.90;;;;;;5076819;28;20791;-36
2023/08/17 05:21:26;;;;;;;2.20;1.25;;;17.60;99.90;;;;;;5066902;28;20789;-36
2023/08/17 05:23:52;;;;;;;2.25;1.05;;;17.60;99.90;;;;;;5077581;28;20020;-36
2023/08/17 05:26:17;;;;;;;1.58;1.20;;;17.60;99.90;;;;;;5066415;28;20035;-36
2023/08/17 05:28:44;;;;;;;3.47;1.45;;;17.70;99.90;;;;;;5078953;28;20047;-36
2023/08/17 05:31:10;;;;;;;2.97;1.17;;;17.70;99.90;;;;;;5065130;28;20597;-36
2023/08/17 05:33:36;;;;;;;2.30;1.30;;;17.70;99.90;;;;;;5078575;28;20028;-36
2023/08/17 05:36:01;;;;;;;1.50;1.20;;;17.80;99.90;;;;;;5066851;28;20021;-35
2023/08/17 05:38:27;;;;;;;2.08;1.30;;;17.80;99.90;;;;;;5074226;28;20039;-36
2023/08/17 05:40:56;;;;;;;2.25;1.30;;;17.80;99.90;;;;;;5070433;28;20033;-35
2023/08/17 05:43:22;;;;;;;3.30;1.40;;;17.90;99.90;;;;;;5071901;28;20151;-35
2023/08/17 05:45:48;;;;;;;1.90;1.10;;;18.00;99.90;;;;;;5071138;28;20381;-35
2023/08/17 05:48:13;;;;;;;3.92;1.30;;;18.10;99.90;;;;;;5069614;28;20039;-37
2023/08/17 05:50:42;;;;;;;2.92;1.20;;;18.20;99.90;;;;;;5074590;28;20028;-35
2023/08/17 05:53:07;;;;;;;3.65;1.70;;;18.20;99.90;;;;;;5067014;28;20055;-35
2023/08/17 05:55:33;;;;;;;2.45;1.48;;;18.30;99.90;;;;;;5076322;28;20024;-36
2023/08/17 05:57:59;;;;;;;2.38;1.40;;;18.40;99.90;;;;;;5066795;28;20201;-36
2023/08/17 06:00:27;;;;;;;3.50;1.60;;;18.50;99.90;;;;;;5075699;28;20111;-36
2023/08/17 06:03:00;;;;;;;3.53;1.50;;;18.50;99.90;;;;;;5067820;28;20353;-37
2023/08/17 06:05:26;;;;;;;2.63;1.40;;;18.50;99.90;;;;;;5078072;28;20086;-37
2023/08/17 06:07:59;;;;;;;1.63;1.33;;;18.50;99.90;;;;;;5086097;28;20054;-37
2023/08/17 06:10:25;;;;;;;2.50;1.50;;;18.50;99.90;;;;;;5072929;28;20027;-35
2023/08/17 06:12:54;;;;;;;2.78;1.23;;;18.50;99.90;;;;;;5085597;28;20043;-37
2023/08/17 06:15:20;;;;;;;2.47;1.60;;;18.60;99.90;;;;;;5072494;28;20077;-36
2023/08/17 06:17:46;;;;;;;2.75;1.70;;;18.60;99.90;;;;;;5085828;28;20032;-35
2023/08/17 06:20:13;;;;;;;4.65;1.80;;;18.60;99.90;;;;;;5072403;28;20016;-36
2023/08/17 06:22:41;;;;;;;3.55;1.77;;;18.70;99.90;;;;;;5085526;28;20036;-37
2023/08/17 06:25:10;;;;;;;4.55;2.00;;;18.80;99.90;;;;;;5074885;28;20029;-35
2023/08/17 06:27:36;;;;;;;2.95;1.40;;;18.90;99.90;;;;;;5083349;28;20510;-34
2023/08/17 06:30:03;;;;;;;3.10;1.40;;;18.90;99.90;;;;;;5076689;28;20029;-35
2023/08/17 06:32:32;;;;;;;3.05;1.40;;;19.00;99.90;;;;;;5081960;28;20073;-36
2023/08/17 06:35:00;;;;;;;3.50;1.50;;;19.10;99.90;;;;;;5079025;28;20028;-36
2023/08/17 06:37:28;;;;;;;2.97;1.27;;;19.20;99.90;;;;;;5079684;28;20039;-35
2023/08/17 06:39:54;;;;;;;2.22;1.30;;;19.20;99.90;;;;;;5081933;28;20020;-37
2023/08/17 06:42:19;;;;;;;1.38;1.27;;;19.20;99.90;;;;;;5075689;28;20105;-36
2023/08/17 06:44:45;;;;;;;3.22;1.30;;;19.20;99.90;;;;;;5083960;28;20825;-36
2023/08/17 06:47:13;;;;;;;2.85;1.50;;;19.20;99.90;;;;;;5074100;28;20536;-35
2023/08/17 06:49:42;;;;;;;3.00;1.30;;;19.30;99.90;;;;;;5083090;28;20016;-34
2023/08/17 06:52:10;;;;;;;1.95;1.27;;;19.30;99.90;;;;;;5073511;28;20119;-35
2023/08/17 06:54:35;;;;;;;5.15;1.40;;;19.30;99.90;;;;;;5084435;28;20032;-35
2023/08/17 06:57:01;;;;;;;3.55;1.38;;;19.30;99.90;;;;;;5072180;28;20391;-37
2023/08/17 06:59:27;;;;;;;3.35;1.25;;;19.30;99.90;;;;;;5084842;28;20028;-36
2023/08/17 07:01:52;;;;;;;1.92;1.20;;;19.30;99.90;;;;;;5071487;28;20086;-37
2023/08/17 07:04:18;;;;;;;2.78;1.70;;;19.30;99.90;;;;;;5083631;28;20036;-35
2023/08/17 07:06:44;;;;;;;2.20;1.20;;;19.30;99.90;;;;;;5071010;28;20039;-36
2023/08/17 07:09:12;;;;;;;4.57;1.77;;;19.30;99.90;;;;;;5082421;28;20756;-34
2023/08/17 07:11:38;;;;;;;3.08;1.20;;;19.40;99.90;;;;;;5074257;28;20058;-36
2023/08/17 07:14:05;;;;;;;5.82;1.80;;;19.30;99.90;;;;;;5080649;28;20108;-35
2023/08/17 07:16:32;;;;;;;3.67;1.40;;;19.30;99.90;;;;;;5076137;28;20166;-34
2023/08/17 07:18:57;;;;;;;4.25;1.77;;;19.30;99.90;;;;;;5079312;28;20073;-36
2023/08/17 07:21:23;;;;;;;5.20;1.50;;;19.30;99.90;;;;;;5079577;28;20024;-34
2023/08/17 07:23:50;;;;;;;2.42;1.40;;;19.30;99.90;;;;;;5076294;28;20028;-35
2023/08/17 07:26:18;;;;;;;3.88;1.40;;;19.40;99.90;;;;;;5081324;28;20024;-37
2023/08/17 07:28:44;;;;;;;4.70;1.40;;;19.50;99.90;;;;;;5074847;28;20111;-35
2023/08/17 07:31:10;;;;;;;2.63;1.50;;;19.50;99.90;;;;;;5082222;28;20099;-35
2023/08/17 07:33:35;;;;;;;4.45;1.70;;;19.50;99.90;;;;;;5072607;28;20039;-36
2023/08/17 07:36:01;;;;;;;2.20;1.20;;;19.60;99.90;;;;;;5083229;28;20024;-35
2023/08/17 07:38:27;;;;;;;2.50;1.60;;;19.60;99.90;;;;;;5072698;28;20025;-38
2023/08/17 07:40:52;;;;;;;3.65;1.52;;;19.80;99.90;;;;;;5083885;28;20043;-34
2023/08/17 07:43:18;;;;;;;1.85;1.40;;;19.80;99.90;;;;;;5071567;28;20123;-37
2023/08/17 07:45:44;;;;;;;2.78;1.55;;;19.80;99.90;;;;;;5084653;28;20764;-34
2023/08/17 07:48:09;;;;;;;2.17;1.52;;;19.80;99.90;;;;;;5071346;28;20027;-35
2023/08/17 07:50:35;;;;;;;4.15;1.75;;;19.90;99.90;;;;;;5084371;28;20036;-36
2023/08/17 07:53:01;;;;;;;2.60;1.35;;;20.00;99.90;;;;;;5077805;28;20433;-36
2023/08/17 07:55:26;;;;;;;2.80;1.30;;;20.10;99.90;;;;;;5067823;28;20024;-36
2023/08/17 07:57:52;;;;;;;2.25;1.25;;;20.10;99.90;;;;;;5070890;28;20123;-36
2023/08/17 08:00:18;;;;;;;2.85;1.38;;;20.20;99.90;;;;;;5069095;28;20487;-36
2023/08/17 08:02:43;;;;;;;7.82;1.95;;;20.20;99.90;;;;;;5068917;28;20372;-35
2023/08/17 08:05:09;;;;;;;3.13;1.55;;;20.10;99.90;;;;;;5071309;28;20031;-36
2023/08/17 08:07:35;;;;;;;3.30;1.70;;;20.10;99.90;;;;;;5080261;28;20020;-37
2023/08/17 08:10:00;;;;;;;5.65;1.80;;;20.10;99.90;;;;;;5074064;28;20024;-34
2023/08/17 08:12:29;;;;;;;3.67;1.52;;;20.10;99.90;;;;;;5082230;28;20127;-38
2023/08/17 08:14:54;;;;;;;3.28;1.70;;;20.10;99.90;;;;;;5071743;28;20036;-36
2023/08/17 08:17:20;;;;;;;2.60;1.80;;;20.20;99.90;;;;;;5082146;28;20020;-36
2023/08/17 08:19:46;;;;;;;3.50;1.50;;;20.20;99.90;;;;;;5070578;28;20028;-37
2023/08/17 08:22:11;;;;;;;3.03;1.63;;;20.10;99.90;;;;;;5083260;28;20501;-36
2023/08/17 08:24:39;;;;;;;3.95;2.00;;;20.10;99.90;;;;;;5070616;28;20068;-36
2023/08/17 08:27:07;;;;;;;6.18;1.90;;;20.10;99.90;;;;;;5082069;28;20064;-37
2023/08/17 08:29:34;;;;;;;5.13;2.50;;;20.10;99.90;;;;;;5071014;28;20040;-36
2023/08/17 08:32:02;;;;;;;4.15;2.17;;;20.00;99.90;;;;;;5063892;28;20017;-35
2023/08/17 08:34:28;;;;;;;6.18;2.13;;;20.00;99.90;;;;;;5073437;28;20052;-36
2023/08/17 08:36:53;;;;;;;6.03;2.20;;;20.00;99.90;;;;;;5066595;28;20429;-36
2023/08/17 08:39:19;;;;;;;4.13;2.40;;;19.90;99.90;;;;;;5071093;28;20024;-37
2023/08/17 08:41:44;;;;;;;6.13;2.20;;;19.90;99.90;;;;;;5068281;28;20530;-37
2023/08/17 08:44:10;;;;;;;4.30;2.20;;;19.90;99.90;;;;;;5069197;28;20479;-36
2023/08/17 08:46:39;;;;;;;3.40;2.13;;;19.90;99.90;;;;;;5071583;28;20047;-35
2023/08/17 08:49:08;;;;;;;4.40;2.17;;;20.00;99.90;;;;;;5066802;28;20036;-36
2023/08/17 08:51:37;;;;;;;2.42;1.58;;;20.00;99.90;;;;;;5074964;28;20413;-36
2023/08/17 08:54:08;;;;;;;5.95;2.03;;;20.10;99.90;;;;;;5085961;28;20047;-36
2023/08/17 08:56:37;;;;;;;3.22;2.05;;;20.10;99.90;;;;;;5075642;28;20111;-37
2023/08/17 08:59:03;;;;;;;4.30;2.15;;;20.10;99.90;;;;;;5086002;28;20586;-37
2023/08/17 09:01:31;;;;;;;6.80;2.50;;;20.10;99.90;;;;;;5075444;28;20089;-37
2023/08/17 09:04:00;;;;;;;5.18;2.95;;;20.20;99.90;;;;;;5085424;28;20024;-38
2023/08/17 09:06:30;;;;;;;4.47;2.13;;;20.20;99.90;;;;;;5077081;28;20099;-35
2023/08/17 09:08:57;;;;;;;3.92;2.97;;;20.20;99.90;;;;;;5066770;28;20803;-35
2023/08/17 09:11:23;;;;;;;4.10;2.40;;;20.20;99.90;;;;;;5079152;28;20020;-35
2023/08/17 09:13:53;;;;;;;8.02;2.70;;;20.20;99.90;;;;;;5067808;28;20493;-36
2023/08/17 09:16:18;;;;;;;3.17;2.67;;;20.20;99.90;;;;;;5078109;28;20024;-36
2023/08/17 09:18:44;;;;;;;6.57;2.90;;;20.20;99.90;;;;;;5067116;28;20625;-36
2023/08/17 09:21:21;;;;;;;4.43;2.90;;;20.30;99.90;;;;;;5077778;28;20028;-36
2023/08/17 09:23:54;;;;;;;3.90;2.70;;;20.30;99.90;;;;;;5065271;28;20036;-37
2023/08/17 09:26:27;;;;;;;4.25;2.40;;;20.40;99.90;;;;;;5077022;28;20016;-36
2023/08/17 09:28:59;;;;;;;4.78;2.90;;;20.40;99.90;;;;;;5065613;28;20547;-33
2023/08/17 09:31:25;;;;;;;5.30;2.80;;;20.50;99.90;;;;;;5076497;28;20023;-37
2023/08/17 09:33:51;;;;;;;4.32;3.40;;;20.60;99.90;;;;;;5068305;28;20470;-35
2023/08/17 09:36:23;;;;;;;9.73;3.13;;;20.60;99.90;;;;;;5073860;28;20088;-36
2023/08/17 09:38:50;;;;;;;4.10;2.95;;;20.60;99.90;;;;;;5069575;28;20029;-35
2023/08/17 09:41:17;;;;;;;8.57;3.40;;;20.60;99.90;;;;;;5072386;28;20071;-35
2023/08/17 09:43:42;;;;;;;5.85;3.25;;;20.60;99.90;;;;;;5071398;28;20028;-36
2023/08/17 09:46:09;;;;;;;4.10;2.47;;;20.60;99.90;;;;;;5070685;28;20020;-35
2023/08/17 09:48:36;;;;;;;5.32;2.95;;;20.60;99.90;;;;;;5074512;28;20036;-35
2023/08/17 09:51:02;;;;;;;4.30;2.78;;;20.60;99.90;;;;;;5066779;28;20024;-35
2023/08/17 09:53:27;;;;;;;3.92;2.40;;;20.60;99.90;;;;;;5077052;28;20052;-34
2023/08/17 09:55:55;;;;;;;5.95;2.97;;;20.70;99.90;;;;;;5067707;28;20102;-36
2023/08/17 09:58:20;;;;;;;5.70;3.40;;;20.70;99.90;;;;;;5076825;28;20051;-36
2023/08/17 10:00:50;;;;;;;5.82;3.45;;;20.80;99.90;;;;;;5067461;28;20029;-35
2023/08/17 10:03:20;;;;;;;6.38;3.22;;;20.80;99.90;;;;;;5076363;28;20032;-36
2023/08/17 10:06:02;;;;;;;6.13;3.42;;;20.80;99.90;;;;;;5066666;28;20032;-36
2023/08/17 10:08:30;;;;;;;4.45;3.30;;;20.90;99.90;;;;;;5078292;28;20035;-36
2023/08/17 10:10:57;;;;;;;5.25;3.15;;;20.90;99.90;;;;;;5066720;28;20069;-36
2023/08/17 10:13:33;;;;;;;4.30;2.88;;;21.00;99.90;;;;;;5077871;28;20571;-36
2023/08/17 10:16:14;;;;;;;5.90;3.75;;;21.10;99.90;;;;;;5066119;28;20047;-36
2023/08/17 10:19:22;;;;;;;4.80;3.35;;;21.20;99.90;;;;;;5072812;28;20039;-35
2023/08/17 10:21:56;;;;;;;6.25;3.90;;;21.30;99.90;;;;;;5067346;28;20135;-37
2023/08/17 10:24:23;;;;;;;4.68;3.30;;;21.20;99.90;;;;;;5074313;28;20020;-37
2023/08/17 10:26:49;;;;;;;7.25;3.90;;;21.20;99.90;;;;;;5083569;28;20062;-36
2023/08/17 10:29:16;;;;;;;6.50;3.92;;;21.10;99.90;;;;;;5072384;28;20020;-35
2023/08/17 10:31:47;;;;;;;6.88;3.70;;;21.00;99.90;;;;;;5084597;28;20058;-38
2023/08/17 10:34:14;;;;;;;4.78;3.20;;;20.90;99.90;;;;;;5071412;28;20016;-36
2023/08/17 10:36:49;;;;;;;5.90;3.70;;;20.90;99.90;;;;;;5084621;28;20430;-37
2023/08/17 10:39:18;;;;;;;5.05;3.40;;;20.90;99.90;;;;;;5071393;28;20047;-36
2023/08/17 10:41:48;;;;;;;7.07;4.28;;;21.00;99.90;;;;;;5084563;28;20046;-36
2023/08/17 10:44:17;;;;;;;6.13;2.97;;;21.00;99.90;;;;;;5071273;28;20113;-37
2023/08/17 10:46:45;;;;;;;5.07;3.17;;;21.00;99.90;;;;;;5085603;28;20069;-36
2023/08/17 10:49:26;;;;;;;7.78;3.60;;;21.00;99.90;;;;;;5072118;28;20149;-36
2023/08/17 10:52:06;;;;;;;5.97;3.25;;;21.00;99.90;;;;;;5064417;28;20033;-34
2023/08/17 10:54:42;;;;;;;5.65;3.53;;;21.00;99.90;;;;;;5076737;28;20154;-35
2023/08/17 10:57:37;;;;;;;9.80;3.60;;;21.00;99.90;;;;;;5063963;28;20100;-36
2023/08/17 11:00:08;;;;;;;6.65;3.75;;;21.10;99.90;;;;;;5072567;28;20024;-36
2023/08/17 11:02:34;;;;;;;5.05;3.65;;;21.10;99.90;;;;;;5085136;28;20035;-35
2023/08/17 11:05:01;;;;;;;5.43;3.03;;;21.10;99.90;;;;;;5078068;28;20110;-36
2023/08/17 11:07:28;;;;;;;4.55;3.38;;;21.20;99.90;;;;;;5079659;28;20047;-36
2023/08/17 11:09:54;;;;;;;5.07;3.35;;;21.30;99.90;;;;;;5080900;28;20016;-36
2023/08/17 11:12:26;;;;;;;5.82;3.10;;;21.30;99.90;;;;;;5063707;28;20035;-36
2023/08/17 11:14:52;;;;;;;4.97;3.38;;;21.40;99.90;;;;;;5075875;28;20115;-36
2023/08/17 11:17:21;;;;;;;5.93;3.30;;;21.40;99.90;;;;;;5065778;28;20801;-37
2023/08/17 11:19:51;;;;;;;5.07;3.42;;;21.30;99.90;;;;;;5073292;28;20031;-35
2023/08/17 11:22:17;;;;;;;4.75;3.30;;;21.30;99.90;;;;;;5066289;28;20059;-35
2023/08/17 11:24:43;;;;;;;6.32;3.53;;;21.30;99.90;;;;;;5070880;28;20085;-36
2023/08/17 11:27:09;;;;;;;4.75;3.00;;;21.30;99.90;;;;;;5070050;28;20039;-37
2023/08/17 11:29:35;;;;;;;6.13;3.47;;;21.30;99.90;;;;;;5067733;28;20036;-35
2023/08/17 11:32:01;;;;;;;6.18;3.70;;;21.40;99.90;;;;;;5072159;28;20032;-35
2023/08/17 11:34:28;;;;;;;4.55;3.42;;;21.40;99.90;;;;;;5065451;28;20476;-36
2023/08/17 11:36:59;;;;;;;4.78;3.50;;;21.40;99.90;;;;;;5074574;28;20028;-36
2023/08/17 11:39:25;;;;;;;5.60;3.25;;;21.40;99.90;;;;;;5064816;28;20020;-36
2023/08/17 11:41:52;;;;;;;6.75;3.72;;;21.40;99.90;;;;;;5074086;28;20088;-35
2023/08/17 11:44:21;;;;;;;5.90;4.07;;;21.40;99.90;;;;;;5062965;28;20066;-35
2023/08/17 11:46:47;;;;;;;4.05;3.00;;;21.50;99.90;;;;;;5074866;28;20050;-34
2023/08/17 11:49:13;;;;;;;4.20;3.53;;;21.50;99.90;;;;;;5063392;28;20832;-36
2023/08/17 11:51:39;;;;;;;5.70;3.83;;;21.60;99.90;;;;;;5075337;28;20032;-35
2023/08/17 11:54:07;;;;;;;7.47;3.80;;;21.60;99.90;;;;;;5062856;28;20059;-35
2023/08/17 11:56:34;;;;;;;6.63;3.88;;;21.60;99.90;;;;;;5076341;28;20059;-35
2023/08/17 11:59:11;;;;;;;5.30;3.67;;;21.60;99.90;;;;;;5063175;28;20345;-35
2023/08/17 12:01:36;;;;;;;5.15;3.47;;;21.50;99.90;;;;;;5075433;28;20044;-37
2023/08/17 12:04:05;;;;;;;4.75;2.90;;;21.40;99.90;;;;;;5063614;28;20327;-34
2023/08/17 12:06:31;;;;;;;5.05;3.58;;;21.50;99.90;;;;;;5066682;28;20016;-37
2023/08/17 12:09:00;;;;;;;4.45;3.45;;;21.50;99.90;;;;;;5063467;28;20020;-36
2023/08/17 12:11:32;;;;;;;4.13;3.33;;;21.50;99.90;;;;;;5068208;28;20077;-36
2023/08/17 12:13:58;;;;;;;3.90;3.25;;;21.40;99.90;;;;;;5080344;28;20070;-36
2023/08/17 12:16:24;;;;;;;3.75;2.97;;;21.40;99.90;;;;;;5077878;28;20020;-36
2023/08/17 12:18:51;;;;;;;5.63;3.28;;;21.40;99.90;;;;;;5076705;28;20020;-36
2023/08/17 12:21:22;;;;;;;3.70;3.20;;;21.50;99.90;;;;;;5079395;28;20115;-37
2023/08/17 12:23:48;;;;;;;6.68;4.00;;;21.50;99.90;;;;;;5076202;28;20027;-36
2023/08/17 12:26:27;;;;;;;5.95;4.00;;;21.50;99.90;;;;;;5081441;28;20055;-35
2023/08/17 12:28:52;;;;;;;5.90;3.92;;;21.50;99.90;;;;;;5079553;28;20066;-36
2023/08/17 12:31:22;;;;;;;5.82;3.83;;;21.50;99.90;;;;;;5086099;28;20052;-36
2023/08/17 12:34:00;;;;;;;5.07;3.70;;;21.50;99.90;;;;;;5077306;28;20111;-37
2023/08/17 12:36:26;;;;;;;6.25;4.00;;;21.40;99.90;;;;;;5086881;28;20489;-35
2023/08/17 12:38:52;;;;;;;6.60;4.13;;;21.40;99.90;;;;;;5077118;28;20020;-36
2023/08/17 12:41:17;;;;;;;7.43;3.80;;;21.40;99.90;;;;;;5085891;28;20083;-35
2023/08/17 12:43:43;;;;;;;7.82;3.85;;;21.40;99.90;;;;;;5076565;28;20034;-35
2023/08/17 12:46:12;;;;;;;5.13;3.95;;;21.40;99.90;;;;;;5086433;28;20424;-37
2023/08/17 12:48:41;;;;;;;5.18;3.70;;;21.50;99.90;;;;;;5073504;28;20042;-36